Time;durP1;ratioP1;P1;durP2;ratioP2;P2;SDS_P1;SDS_P2;PMS_P1;PMS_P2;Temp;Humidity;BMP_temperature;BMP_pressure;BME280_temperature;BME280_humidity;BME280_pressure;Samples;Min_cycle;Max_cycle;Signal;HPM_P1;HPM_P2
2022/11/18 00:02:00;;;;;;;4.03;1.90;;;10.10;86.70;;;;;;5038541;28;20041;-72
2022/11/18 00:04:26;;;;;;;4.82;2.08;;;10.10;86.70;;;;;;5038469;28;20029;-73
2022/11/18 00:06:51;;;;;;;3.45;2.17;;;10.20;86.50;;;;;;5055939;28;20021;-72
2022/11/18 00:09:17;;;;;;;3.88;1.90;;;10.10;86.50;;;;;;5055822;28;20033;-73
2022/11/18 00:14:27;;;;;;;6.90;1.92;;;10.10;86.60;;;;;;5056061;28;20036;-73
2022/11/18 00:16:57;;;;;;;4.70;1.90;;;10.10;86.70;;;;;;5055785;28;20030;-72
2022/11/18 00:19:43;;;;;;;4.03;1.63;;;10.00;86.90;;;;;;5038107;28;20084;-72
2022/11/18 00:22:11;;;;;;;7.38;2.35;;;10.00;87.00;;;;;;5055099;28;20101;-72
2022/11/18 00:24:37;;;;;;;6.18;1.83;;;10.00;87.20;;;;;;5038132;28;20084;-73
2022/11/18 00:27:03;;;;;;;5.13;2.00;;;10.00;87.20;;;;;;5055565;28;20053;-73
2022/11/18 00:29:30;;;;;;;5.07;2.20;;;10.00;87.20;;;;;;5055535;28;20064;-73
2022/11/18 00:31:56;;;;;;;2.70;1.73;;;10.00;87.10;;;;;;5055571;28;20048;-73
2022/11/18 00:34:23;;;;;;;4.93;1.67;;;10.10;86.90;;;;;;5038126;28;20061;-73
2022/11/18 00:36:49;;;;;;;5.07;2.03;;;10.10;86.90;;;;;;5055393;28;20029;-73
2022/11/18 00:39:17;;;;;;;6.43;1.83;;;10.10;86.90;;;;;;5055370;28;20026;-73
2022/11/18 00:44:29;;;;;;;5.35;1.80;;;10.10;86.60;;;;;;5055508;28;20057;-73
2022/11/18 00:46:54;;;;;;;4.25;1.77;;;10.10;86.40;;;;;;5037489;28;20025;-73
2022/11/18 00:49:20;;;;;;;4.22;1.73;;;10.20;86.30;;;;;;5055104;28;20038;-72
2022/11/18 00:51:46;;;;;;;3.90;1.95;;;10.10;86.00;;;;;;5055148;28;20468;-73
2022/11/18 00:54:11;;;;;;;4.40;1.75;;;10.10;86.80;;;;;;5055096;28;20053;-73
2022/11/18 00:56:37;;;;;;;4.22;1.75;;;10.10;86.20;;;;;;5055012;28;20034;-72
2022/11/18 00:59:03;;;;;;;3.60;1.88;;;10.20;86.30;;;;;;5037512;28;20026;-73
2022/11/18 01:01:28;;;;;;;2.92;1.80;;;10.20;86.20;;;;;;5037302;28;20495;-73
2022/11/18 01:03:54;;;;;;;2.72;1.85;;;10.20;86.10;;;;;;5054927;28;20085;-73
2022/11/18 01:06:19;;;;;;;4.32;1.88;;;10.20;86.10;;;;;;5054819;28;20026;-73
2022/11/18 01:08:45;;;;;;;4.45;1.80;;;10.20;86.20;;;;;;5054745;28;20030;-72
2022/11/18 01:13:54;;;;;;;4.15;1.75;;;10.20;86.00;;;;;;5054957;28;20065;-73
2022/11/18 01:16:23;;;;;;;6.38;1.77;;;10.20;86.20;;;;;;5037292;28;20026;-73
2022/11/18 01:18:49;;;;;;;7.78;2.20;;;10.20;86.30;;;;;;5054604;28;20049;-72
2022/11/18 01:21:15;;;;;;;3.67;2.00;;;10.20;86.30;;;;;;5054492;28;20025;-73
2022/11/18 01:23:41;;;;;;;3.80;1.80;;;10.20;86.30;;;;;;5037018;28;20030;-73
2022/11/18 01:26:10;;;;;;;4.03;1.92;;;10.20;86.40;;;;;;5054473;28;20029;-73
2022/11/18 01:28:36;;;;;;;5.10;2.15;;;10.30;86.30;;;;;;5036868;28;20025;-72
2022/11/18 01:31:08;;;;;;;4.88;2.00;;;10.30;86.40;;;;;;5053657;28;20041;-72
2022/11/18 01:33:34;;;;;;;6.75;2.00;;;10.30;86.40;;;;;;5054536;28;20017;-73
2022/11/18 01:36:00;;;;;;;4.70;2.08;;;10.30;86.30;;;;;;5036851;28;20049;-73
2022/11/18 01:38:29;;;;;;;3.88;2.10;;;10.40;86.40;;;;;;5054225;28;20018;-73
2022/11/18 01:40:55;;;;;;;6.35;2.50;;;10.40;86.40;;;;;;5054180;28;20080;-73
2022/11/18 01:43:22;;;;;;;9.27;2.25;;;10.40;86.40;;;;;;5036563;28;20028;-73
2022/11/18 01:45:50;;;;;;;5.10;2.20;;;10.40;86.50;;;;;;5054102;28;20018;-72
2022/11/18 01:48:32;;;;;;;8.00;2.30;;;10.40;86.40;;;;;;5053922;28;20050;-72
2022/11/18 01:51:03;;;;;;;5.20;2.10;;;10.40;86.40;;;;;;5054181;28;20044;-73
2022/11/18 01:53:37;;;;;;;5.63;2.25;;;10.40;86.40;;;;;;5054087;28;20249;-73
2022/11/18 01:56:13;;;;;;;7.00;2.25;;;10.40;86.50;;;;;;5053913;28;20026;-72
2022/11/18 01:58:56;;;;;;;5.85;1.90;;;10.40;86.50;;;;;;5053888;28;20025;-73
2022/11/18 02:01:22;;;;;;;4.75;1.83;;;10.40;86.70;;;;;;5053804;28;20026;-72
2022/11/18 02:03:49;;;;;;;5.05;2.10;;;10.50;87.20;;;;;;5053775;28;20025;-73
2022/11/18 02:06:15;;;;;;;4.68;2.05;;;10.50;86.50;;;;;;5036312;28;20018;-73
2022/11/18 02:08:41;;;;;;;4.57;2.35;;;10.50;86.50;;;;;;5053627;28;20049;-72
2022/11/18 02:11:49;;;;;;;3.28;1.98;;;10.40;86.50;;;;;;5036380;28;20081;-73
2022/11/18 02:14:00;;;;;;;4.00;1.70;;;10.50;86.60;;;;;;5053435;28;20029;-72
2022/11/18 02:17:12;;;;;;;3.90;1.95;;;10.50;86.70;;;;;;5053560;28;20045;-72
2022/11/18 02:19:50;;;;;;;4.55;2.28;;;10.50;86.70;;;;;;5053511;28;20102;-73
2022/11/18 02:22:37;;;;;;;4.50;2.33;;;10.50;86.70;;;;;;5053554;28;20033;-73
2022/11/18 02:25:18;;;;;;;12.90;2.10;;;10.40;86.80;;;;;;5053452;28;20028;-73
2022/11/18 02:27:52;;;;;;;5.80;2.22;;;10.40;87.00;;;;;;5053409;28;20022;-73
2022/11/18 02:30:18;;;;;;;6.70;1.90;;;10.40;87.00;;;;;;5053356;28;20029;-73
2022/11/18 02:33:05;;;;;;;7.13;1.92;;;10.40;87.10;;;;;;5053337;28;20049;-72
2022/11/18 02:35:41;;;;;;;4.32;1.98;;;10.40;87.20;;;;;;5053351;28;20064;-72
2022/11/18 02:38:19;;;;;;;4.30;2.17;;;10.40;87.40;;;;;;5053316;28;20021;-73
2022/11/18 02:41:06;;;;;;;5.00;2.10;;;10.50;87.40;;;;;;5053257;28;20029;-72
2022/11/18 02:43:48;;;;;;;3.60;1.85;;;10.40;87.80;;;;;;5053321;28;20052;-72
2022/11/18 02:46:19;;;;;;;4.57;1.98;;;10.40;88.10;;;;;;5053241;28;20025;-73
2022/11/18 02:48:48;;;;;;;6.13;2.00;;;10.40;88.00;;;;;;5035531;28;20068;-72
2022/11/18 02:51:17;;;;;;;4.65;1.88;;;10.40;88.10;;;;;;5053148;28;20026;-73
2022/11/18 02:53:45;;;;;;;4.00;1.70;;;10.40;88.50;;;;;;5053111;28;20022;-73
2022/11/18 02:56:12;;;;;;;3.58;1.85;;;10.40;88.40;;;;;;5019430;28;20025;-73
2022/11/18 02:58:38;;;;;;;3.88;1.83;;;10.40;89.00;;;;;;5053073;28;20021;-73
2022/11/18 03:01:04;;;;;;;5.45;1.90;;;10.40;89.30;;;;;;5053035;28;20040;-73
2022/11/18 03:03:33;;;;;;;5.53;1.90;;;10.50;89.30;;;;;;5052942;28;20030;-72
2022/11/18 03:06:17;;;;;;;5.00;1.90;;;10.40;89.40;;;;;;5035536;28;20081;-73
2022/11/18 03:08:57;;;;;;;3.75;1.90;;;10.40;90.00;;;;;;5052992;28;20025;-73
2022/11/18 03:11:27;;;;;;;5.20;1.70;;;10.30;90.10;;;;;;5052004;28;20014;-72
2022/11/18 03:14:12;;;;;;;3.35;1.85;;;10.30;90.50;;;;;;5052938;28;20068;-72
2022/11/18 03:16:59;;;;;;;3.97;2.10;;;10.30;90.40;;;;;;5053064;28;20029;-73
2022/11/18 03:20:05;;;;;;;4.10;2.00;;;10.30;90.40;;;;;;5052933;28;20022;-73
2022/11/18 03:22:42;;;;;;;4.57;2.00;;;10.30;90.20;;;;;;5052968;28;20081;-73
2022/11/18 03:25:46;;;;;;;4.47;1.92;;;10.40;90.20;;;;;;5052994;28;20022;-73
2022/11/18 03:28:35;;;;;;;3.33;1.85;;;10.40;90.20;;;;;;5052835;28;20044;-73
2022/11/18 03:31:19;;;;;;;7.82;2.40;;;10.40;90.30;;;;;;5052928;28;20026;-73
2022/11/18 03:33:48;;;;;;;6.53;2.22;;;10.30;90.40;;;;;;5052792;28;20029;-73
2022/11/18 03:36:18;;;;;;;5.03;1.95;;;10.40;90.20;;;;;;5052713;28;20033;-73
2022/11/18 03:38:52;;;;;;;4.07;1.80;;;10.40;90.30;;;;;;5051810;28;20373;-73
2022/11/18 03:41:19;;;;;;;3.70;2.20;;;10.40;90.30;;;;;;5051732;28;20029;-73
2022/11/18 03:44:03;;;;;;;4.10;1.88;;;10.40;90.20;;;;;;5052633;28;20026;-73
2022/11/18 03:46:35;;;;;;;4.68;2.10;;;10.40;90.20;;;;;;5052667;28;20033;-73
2022/11/18 03:49:04;;;;;;;6.07;2.33;;;10.40;90.40;;;;;;5052488;28;20065;-73
2022/11/18 03:51:36;;;;;;;3.10;2.00;;;10.40;90.20;;;;;;5052572;28;20021;-73
2022/11/18 03:54:11;;;;;;;4.18;2.10;;;10.40;90.20;;;;;;5054719;28;20014;-73
2022/11/18 03:56:42;;;;;;;5.95;2.03;;;10.50;90.20;;;;;;5056221;28;20052;-73
2022/11/18 03:59:19;;;;;;;5.07;2.10;;;10.50;90.20;;;;;;5056165;28;20021;-73
2022/11/18 04:02:10;;;;;;;4.38;1.58;;;10.40;90.30;;;;;;5056069;28;20036;-73
2022/11/18 04:04:36;;;;;;;6.63;1.95;;;10.40;90.30;;;;;;5056075;28;20404;-73
2022/11/18 04:07:28;;;;;;;6.40;1.80;;;10.30;90.40;;;;;;5055998;28;20077;-72
2022/11/18 04:10:08;;;;;;;6.82;1.58;;;10.30;90.40;;;;;;5055191;28;20049;-72
2022/11/18 04:12:39;;;;;;;3.20;1.75;;;10.30;90.50;;;;;;5055914;28;20027;-73
2022/11/18 04:15:05;;;;;;;3.42;1.38;;;10.30;90.50;;;;;;5055910;28;20484;-73
2022/11/18 04:17:31;;;;;;;4.07;1.90;;;10.30;90.60;;;;;;5055885;28;20060;-72
2022/11/18 04:19:56;;;;;;;3.08;1.65;;;10.30;90.60;;;;;;5055741;28;20034;-73
2022/11/18 04:22:22;;;;;;;2.65;1.77;;;10.30;90.60;;;;;;5021731;28;20036;-72
2022/11/18 04:24:48;;;;;;;3.15;1.70;;;10.30;90.60;;;;;;5055654;28;20036;-73
2022/11/18 04:27:14;;;;;;;3.05;1.73;;;10.30;90.50;;;;;;5038232;28;20085;-72
2022/11/18 04:29:40;;;;;;;5.00;1.30;;;10.30;90.50;;;;;;5055566;28;20028;-72
2022/11/18 04:32:06;;;;;;;5.32;2.20;;;10.30;90.40;;;;;;5055560;28;20038;-72
2022/11/18 04:34:32;;;;;;;6.28;1.95;;;10.30;90.50;;;;;;5055476;28;20049;-72
2022/11/18 04:36:57;;;;;;;4.05;1.52;;;10.30;90.50;;;;;;5055456;28;20037;-72
2022/11/18 04:39:23;;;;;;;3.58;2.03;;;10.30;90.50;;;;;;5038048;28;20029;-73
2022/11/18 04:41:54;;;;;;;3.78;1.55;;;10.30;90.50;;;;;;5037680;28;20029;-73
2022/11/18 04:44:31;;;;;;;4.25;1.45;;;10.30;90.60;;;;;;5055312;28;20511;-72
2022/11/18 04:46:59;;;;;;;5.57;1.60;;;10.20;90.70;;;;;;5055230;28;20021;-72
2022/11/18 04:49:25;;;;;;;4.28;1.95;;;10.30;90.80;;;;;;5055195;28;20042;-72
2022/11/18 04:51:51;;;;;;;3.40;1.73;;;10.20;90.80;;;;;;5037768;28;20056;-73
2022/11/18 04:54:18;;;;;;;2.28;1.60;;;10.20;90.80;;;;;;5055118;28;20021;-72
2022/11/18 04:56:44;;;;;;;4.18;1.58;;;10.30;90.90;;;;;;5055077;28;20022;-73
2022/11/18 04:59:10;;;;;;;3.25;1.70;;;10.30;90.90;;;;;;5055063;28;20025;-73
2022/11/18 05:01:36;;;;;;;4.43;1.40;;;10.20;90.90;;;;;;5037354;28;20049;-73
2022/11/18 05:04:03;;;;;;;3.80;1.75;;;10.20;90.90;;;;;;5054575;28;20037;-73
2022/11/18 05:06:30;;;;;;;3.83;1.52;;;10.10;91.00;;;;;;5054199;28;20109;-73
2022/11/18 05:08:57;;;;;;;5.28;1.60;;;10.10;91.10;;;;;;5054757;28;20025;-73
2022/11/18 05:14:08;;;;;;;4.55;2.10;;;10.10;91.10;;;;;;5054847;28;20029;-72
2022/11/18 05:16:33;;;;;;;5.97;1.73;;;10.10;91.10;;;;;;5054797;28;20029;-72
2022/11/18 05:19:01;;;;;;;3.90;1.65;;;10.10;91.20;;;;;;5054638;28;20065;-72
2022/11/18 05:21:26;;;;;;;4.40;1.85;;;10.10;91.30;;;;;;5054536;28;20090;-73
2022/11/18 05:23:52;;;;;;;3.00;1.40;;;10.10;91.30;;;;;;5054547;28;20029;-73
2022/11/18 05:26:18;;;;;;;4.38;1.48;;;10.00;91.30;;;;;;5037134;28;20037;-73
2022/11/18 05:28:43;;;;;;;3.70;1.45;;;10.00;91.30;;;;;;5037109;28;20049;-73
2022/11/18 05:31:12;;;;;;;5.45;1.90;;;10.00;91.30;;;;;;5036960;28;20040;-72
2022/11/18 05:33:38;;;;;;;3.83;2.00;;;10.00;91.70;;;;;;5054328;28;20044;-73
2022/11/18 05:36:15;;;;;;;2.58;1.30;;;10.00;91.20;;;;;;5054438;28;20035;-72
2022/11/18 05:38:41;;;;;;;4.78;1.50;;;10.00;91.30;;;;;;5054267;28;20077;-72
2022/11/18 05:41:06;;;;;;;3.72;2.10;;;10.00;91.30;;;;;;5054178;28;20038;-72
2022/11/18 05:43:32;;;;;;;2.72;1.45;;;9.90;91.30;;;;;;5054119;28;20029;-73
2022/11/18 05:45:58;;;;;;;4.22;1.70;;;10.00;91.30;;;;;;5054133;28;20021;-73
2022/11/18 05:48:24;;;;;;;3.30;1.67;;;9.90;91.30;;;;;;5053875;28;20052;-72
2022/11/18 05:50:53;;;;;;;5.93;1.90;;;9.90;91.30;;;;;;5054025;28;20026;-73
2022/11/18 05:53:20;;;;;;;6.47;2.10;;;9.90;91.40;;;;;;5053974;28;20021;-73
2022/11/18 05:55:58;;;;;;;7.70;2.05;;;9.90;91.40;;;;;;5053917;28;20026;-73
2022/11/18 05:58:23;;;;;;;4.70;1.52;;;9.90;91.30;;;;;;5054065;28;20033;-72
2022/11/18 06:00:53;;;;;;;4.47;2.08;;;9.80;91.20;;;;;;5053876;28;20025;-72
2022/11/18 06:03:25;;;;;;;3.75;1.52;;;9.80;91.00;;;;;;5053890;28;20022;-73
2022/11/18 06:05:54;;;;;;;5.43;1.88;;;9.70;91.20;;;;;;5053821;28;20020;-73
2022/11/18 06:08:20;;;;;;;5.03;1.80;;;9.70;90.80;;;;;;5053576;28;20036;-73
2022/11/18 06:10:48;;;;;;;3.95;1.52;;;9.60;90.80;;;;;;5053618;28;20464;-73
2022/11/18 06:13:22;;;;;;;4.57;1.88;;;9.60;91.00;;;;;;5053658;28;20036;-73
2022/11/18 06:15:48;;;;;;;4.65;1.65;;;9.50;91.00;;;;;;5053341;28;20025;-73
2022/11/18 06:18:26;;;;;;;3.78;2.10;;;9.50;91.20;;;;;;5036155;28;20029;-73
2022/11/18 06:20:59;;;;;;;3.75;2.08;;;9.40;90.80;;;;;;5053488;28;20029;-73
2022/11/18 06:23:28;;;;;;;;;;;9.40;90.90;;;;;;5053861;28;20021;-73
2022/11/18 06:25:54;;;;;;;6.55;1.75;;;9.30;91.00;;;;;;5053463;28;19909;-72
2022/11/18 06:28:21;;;;;;;4.47;1.70;;;9.30;91.40;;;;;;5036069;28;20029;-73
2022/11/18 06:30:46;;;;;;;4.05;1.52;;;9.20;91.20;;;;;;5053369;28;20030;-73
2022/11/18 06:33:12;;;;;;;5.05;1.50;;;9.10;91.20;;;;;;5036035;28;20040;-73
2022/11/18 06:35:38;;;;;;;3.38;1.55;;;9.20;91.50;;;;;;5035944;28;20085;-73
2022/11/18 06:38:03;;;;;;;4.70;1.80;;;9.10;91.40;;;;;;5019431;28;20038;-72
2022/11/18 06:40:30;;;;;;;5.55;1.90;;;9.10;91.40;;;;;;5053220;28;20029;-72
2022/11/18 06:46:54;;;;;;;3.13;1.70;;;9.10;91.60;;;;;;5053429;28;20040;-73
2022/11/18 06:48:25;;;;;;;3.63;1.75;;;9.10;91.50;;;;;;5052825;28;20077;-72
2022/11/18 06:50:51;;;;;;;5.88;1.85;;;9.10;91.60;;;;;;5035751;28;20028;-72
2022/11/18 06:53:17;;;;;;;13.65;1.92;;;9.10;91.60;;;;;;5053248;28;20536;-73
2022/11/18 06:55:42;;;;;;;4.78;2.05;;;9.10;91.70;;;;;;5053122;28;20034;-73
2022/11/18 06:58:08;;;;;;;3.22;1.65;;;9.10;91.60;;;;;;5053179;28;20056;-73
2022/11/18 07:00:33;;;;;;;4.03;1.80;;;9.10;91.40;;;;;;5035533;28;20041;-73
2022/11/18 07:03:01;;;;;;;4.32;1.80;;;9.00;91.60;;;;;;5035491;28;20049;-73
2022/11/18 07:05:26;;;;;;;4.78;2.15;;;9.00;91.30;;;;;;5035606;28;20056;-73
2022/11/18 07:07:52;;;;;;;5.78;1.77;;;9.00;91.50;;;;;;5035556;28;20029;-73
2022/11/18 07:10:17;;;;;;;5.10;1.95;;;9.00;91.50;;;;;;5035595;28;20049;-72
2022/11/18 07:12:43;;;;;;;5.07;2.10;;;9.00;91.60;;;;;;5035558;28;20040;-72
2022/11/18 07:15:09;;;;;;;5.65;2.40;;;9.00;91.50;;;;;;5052918;28;20085;-73
2022/11/18 07:17:35;;;;;;;4.63;2.17;;;9.00;91.50;;;;;;5052912;28;20033;-73
2022/11/18 07:20:00;;;;;;;6.70;2.00;;;9.00;91.70;;;;;;5035497;28;20030;-73
2022/11/18 07:22:26;;;;;;;6.55;2.10;;;8.90;91.60;;;;;;5052775;28;20068;-73
2022/11/18 07:24:51;;;;;;;4.28;2.10;;;9.00;91.70;;;;;;5035517;28;20085;-72
2022/11/18 07:27:17;;;;;;;4.68;2.30;;;9.00;91.80;;;;;;5052839;28;20030;-73
2022/11/18 07:29:42;;;;;;;6.38;2.05;;;9.00;91.70;;;;;;5056130;28;20022;-74
2022/11/18 07:32:08;;;;;;;4.10;1.77;;;9.00;91.70;;;;;;5022699;28;20040;-73
2022/11/18 07:34:34;;;;;;;3.55;2.17;;;9.00;91.60;;;;;;5022848;28;20057;-73
2022/11/18 07:36:59;;;;;;;4.93;1.90;;;9.00;91.60;;;;;;5056566;28;20097;-73
2022/11/18 07:39:25;;;;;;;6.20;1.90;;;9.00;91.50;;;;;;5022754;28;20112;-73
2022/11/18 07:41:50;;;;;;;4.13;2.15;;;9.00;91.40;;;;;;5056418;28;20034;-73
2022/11/18 07:44:16;;;;;;;4.55;2.20;;;9.00;91.50;;;;;;5038863;28;20046;-73
2022/11/18 07:46:42;;;;;;;5.65;2.30;;;9.00;91.60;;;;;;5056291;28;20085;-73
2022/11/18 07:49:08;;;;;;;5.00;2.33;;;9.00;92.10;;;;;;5056210;28;20053;-73
2022/11/18 07:51:35;;;;;;;5.55;1.98;;;9.00;91.70;;;;;;5056281;28;20018;-73
2022/11/18 07:54:08;;;;;;;4.90;2.10;;;9.00;91.70;;;;;;5056266;28;20033;-73
2022/11/18 07:56:34;;;;;;;3.55;2.00;;;9.10;91.80;;;;;;5056241;28;20024;-73
2022/11/18 07:59:00;;;;;;;5.05;2.22;;;9.10;91.80;;;;;;5056124;28;20029;-73
2022/11/18 08:01:29;;;;;;;3.72;2.20;;;9.10;91.80;;;;;;5038794;28;20053;-73
2022/11/18 08:03:55;;;;;;;3.63;2.50;;;9.20;92.20;;;;;;5038584;28;20396;-72
2022/11/18 08:06:21;;;;;;;3.88;2.10;;;9.20;91.80;;;;;;5056056;28;20032;-73
2022/11/18 08:08:47;;;;;;;4.65;2.50;;;9.20;91.60;;;;;;5038486;28;20021;-73
2022/11/18 08:11:16;;;;;;;5.40;2.55;;;9.30;91.50;;;;;;5055915;28;20021;-73
2022/11/18 08:13:41;;;;;;;4.45;1.90;;;9.60;91.30;;;;;;5055927;28;20033;-73
2022/11/18 08:16:19;;;;;;;7.30;2.33;;;9.60;90.60;;;;;;5055866;28;20025;-73
2022/11/18 08:18:46;;;;;;;5.20;2.17;;;9.50;90.80;;;;;;5055851;28;20033;-73
2022/11/18 08:21:12;;;;;;;9.27;2.50;;;9.50;90.80;;;;;;5038188;28;20057;-73
2022/11/18 08:23:38;;;;;;;4.90;2.20;;;9.40;90.80;;;;;;5038182;28;20056;-73
2022/11/18 08:26:14;;;;;;;7.50;2.40;;;9.40;90.80;;;;;;5055668;28;20025;-73
2022/11/18 08:28:44;;;;;;;4.15;2.40;;;9.40;90.80;;;;;;5054623;28;20017;-73
2022/11/18 08:31:17;;;;;;;5.03;2.60;;;9.40;90.80;;;;;;5055575;28;20473;-73
2022/11/18 08:33:43;;;;;;;6.25;2.60;;;9.50;91.00;;;;;;5055524;28;20049;-73
2022/11/18 08:36:21;;;;;;;4.47;2.58;;;9.50;90.60;;;;;;5055480;28;20057;-73
2022/11/18 08:38:47;;;;;;;5.80;2.38;;;9.80;90.60;;;;;;5055305;28;20080;-73
2022/11/18 08:41:15;;;;;;;4.45;2.50;;;10.20;90.10;;;;;;5055431;28;20029;-73
2022/11/18 08:43:41;;;;;;;4.45;2.58;;;10.60;88.10;;;;;;5055264;28;20028;-73
2022/11/18 08:46:07;;;;;;;5.47;2.38;;;11.00;86.80;;;;;;5055172;28;20480;-73
2022/11/18 08:48:32;;;;;;;4.93;2.28;;;11.40;84.90;;;;;;5054853;28;20127;-73
2022/11/18 08:50:59;;;;;;;4.88;2.40;;;11.60;82.70;;;;;;5055055;28;20026;-73
2022/11/18 08:53:25;;;;;;;5.55;2.55;;;11.60;83.00;;;;;;5055029;28;20037;-73
2022/11/18 08:55:58;;;;;;;6.10;2.55;;;11.60;83.00;;;;;;5021252;28;20025;-73
2022/11/18 08:58:24;;;;;;;4.00;2.13;;;11.60;82.10;;;;;;5055098;28;20037;-73
2022/11/18 09:00:49;;;;;;;7.93;2.72;;;11.50;82.70;;;;;;5037555;28;20025;-73
2022/11/18 09:03:15;;;;;;;6.85;2.63;;;11.40;82.70;;;;;;5055047;28;20439;-73
2022/11/18 09:05:41;;;;;;;5.72;2.55;;;11.20;83.60;;;;;;5037556;28;20018;-73
2022/11/18 09:08:06;;;;;;;6.38;2.78;;;11.00;84.10;;;;;;5054663;28;20473;-73
2022/11/18 09:10:33;;;;;;;5.13;2.38;;;10.80;84.60;;;;;;5036996;28;20052;-73
2022/11/18 09:12:59;;;;;;;5.55;2.38;;;10.60;85.40;;;;;;5037283;28;20029;-73
2022/11/18 09:15:25;;;;;;;5.85;2.65;;;10.60;86.00;;;;;;5054519;28;20033;-73
2022/11/18 09:17:51;;;;;;;5.30;2.50;;;10.50;86.30;;;;;;5036967;28;20053;-73
2022/11/18 09:20:17;;;;;;;4.35;2.60;;;10.60;86.50;;;;;;5036983;28;20105;-73
2022/11/18 09:22:43;;;;;;;7.07;3.55;;;10.70;86.20;;;;;;5054357;28;20040;-73
2022/11/18 09:25:09;;;;;;;6.38;3.30;;;10.60;86.20;;;;;;5054312;28;20506;-73
2022/11/18 09:27:35;;;;;;;6.68;2.92;;;10.50;86.60;;;;;;5054490;28;20025;-73
2022/11/18 09:30:00;;;;;;;4.82;2.85;;;10.40;86.70;;;;;;5036971;28;20026;-74
2022/11/18 09:32:26;;;;;;;6.63;3.00;;;10.40;87.00;;;;;;5036853;28;20060;-73
2022/11/18 09:34:52;;;;;;;5.70;2.97;;;10.80;87.40;;;;;;5054338;28;20029;-73
2022/11/18 09:37:17;;;;;;;6.63;3.15;;;11.10;85.80;;;;;;5054454;28;20062;-73
2022/11/18 09:39:43;;;;;;;6.25;3.63;;;11.10;84.80;;;;;;5036732;28;20084;-73
2022/11/18 09:42:18;;;;;;;5.15;3.25;;;11.10;85.40;;;;;;5054159;28;20033;-73
2022/11/18 09:44:58;;;;;;;5.13;2.85;;;11.00;85.30;;;;;;5054345;28;20021;-73
2022/11/18 09:47:28;;;;;;;5.20;2.72;;;10.80;85.50;;;;;;5053926;28;20041;-73
2022/11/18 09:49:58;;;;;;;5.45;3.28;;;10.70;85.70;;;;;;5054054;28;20018;-73
2022/11/18 09:52:37;;;;;;;6.78;3.05;;;10.70;86.80;;;;;;5053321;28;20025;-73
2022/11/18 09:55:10;;;;;;;6.90;3.15;;;10.60;87.40;;;;;;5053976;28;20033;-73
2022/11/18 09:57:38;;;;;;;7.93;2.95;;;10.60;87.50;;;;;;5053852;28;20036;-73
2022/11/18 10:00:19;;;;;;;5.65;3.00;;;10.60;87.80;;;;;;5053716;28;20051;-73
2022/11/18 10:03:15;;;;;;;5.18;3.22;;;10.60;88.20;;;;;;5036167;28;20109;-73
2022/11/18 10:06:02;;;;;;;11.57;3.67;;;10.70;88.40;;;;;;5053776;28;20037;-73
2022/11/18 10:08:34;;;;;;;5.00;2.45;;;10.70;89.00;;;;;;5053737;28;20380;-73
2022/11/18 10:11:09;;;;;;;8.50;2.85;;;10.70;87.70;;;;;;5053670;28;20022;-73
2022/11/18 10:14:05;;;;;;;6.20;3.00;;;10.70;88.30;;;;;;5053848;28;20055;-73
2022/11/18 10:16:54;;;;;;;4.38;2.53;;;10.70;88.10;;;;;;5053814;28;20049;-73
2022/11/18 10:19:41;;;;;;;5.95;3.20;;;10.80;87.70;;;;;;5053781;28;20022;-73
2022/11/18 10:22:16;;;;;;;8.00;2.97;;;11.00;88.10;;;;;;5053509;28;20033;-73
2022/11/18 10:24:47;;;;;;;6.68;3.58;;;11.20;88.70;;;;;;5053509;28;20017;-73
2022/11/18 10:27:14;;;;;;;10.07;2.90;;;11.30;87.90;;;;;;5053520;28;20022;-73
2022/11/18 10:29:41;;;;;;;7.13;3.33;;;11.30;86.00;;;;;;5053561;28;20021;-73
2022/11/18 10:32:15;;;;;;;10.85;3.83;;;11.40;86.30;;;;;;5035956;28;20034;-73
2022/11/18 10:34:57;;;;;;;6.05;2.60;;;11.50;87.10;;;;;;5053370;28;20033;-74
2022/11/18 10:37:28;;;;;;;5.10;3.05;;;11.60;85.00;;;;;;5053361;28;20056;-73
2022/11/18 10:39:56;;;;;;;8.20;3.13;;;11.70;86.10;;;;;;5053310;28;20049;-73
2022/11/18 10:42:28;;;;;;;7.45;2.88;;;11.80;85.50;;;;;;5053201;28;20052;-73
2022/11/18 10:45:13;;;;;;;6.32;3.20;;;11.80;84.30;;;;;;5053423;28;20029;-73
2022/11/18 10:47:38;;;;;;;6.18;3.22;;;11.80;84.60;;;;;;5052921;28;20052;-73
2022/11/18 10:50:31;;;;;;;4.68;2.92;;;11.80;85.10;;;;;;5035790;28;20085;-73
2022/11/18 10:52:57;;;;;;;7.40;3.15;;;11.80;84.60;;;;;;5035611;28;20021;-73
2022/11/18 10:55:25;;;;;;;2.80;1.90;;;11.80;84.70;;;;;;5053251;28;20040;-73
2022/11/18 10:58:01;;;;;;;6.03;2.30;;;11.80;83.90;;;;;;5053104;28;20029;-73
2022/11/18 11:00:42;;;;;;;4.30;2.35;;;11.70;83.10;;;;;;5053098;28;20032;-73
2022/11/18 11:03:25;;;;;;;6.50;3.42;;;11.80;83.90;;;;;;5053987;28;20044;-73
2022/11/18 11:06:14;;;;;;;7.95;3.47;;;11.90;83.40;;;;;;5057206;28;20078;-73
2022/11/18 11:09:12;;;;;;;6.10;2.45;;;12.00;83.70;;;;;;5039474;28;20013;-73
2022/11/18 11:11:55;;;;;;;6.63;2.45;;;12.10;83.90;;;;;;5056477;28;20038;-74
2022/11/18 11:14:51;;;;;;;6.70;2.80;;;12.30;84.00;;;;;;5057072;28;20393;-73
2022/11/18 11:17:32;;;;;;;7.80;2.03;;;12.40;83.00;;;;;;5039466;28;20037;-74
2022/11/18 11:20:32;;;;;;;5.03;2.20;;;12.30;82.20;;;;;;5039421;28;20032;-73
2022/11/18 11:22:59;;;;;;;5.03;2.00;;;12.30;81.40;;;;;;5034413;28;20180;-74
2022/11/18 11:25:36;;;;;;;8.02;2.38;;;12.20;81.70;;;;;;5056817;28;20021;-73
2022/11/18 11:28:09;;;;;;;6.80;2.35;;;12.20;82.10;;;;;;5056847;28;20022;-73
2022/11/18 11:31:03;;;;;;;7.80;2.80;;;12.20;81.50;;;;;;5056908;28;20022;-73
2022/11/18 11:33:38;;;;;;;3.10;2.28;;;12.20;81.60;;;;;;5018983;28;20030;-73
2022/11/18 11:36:21;;;;;;;7.28;2.92;;;12.20;81.40;;;;;;5039205;28;20018;-73
2022/11/18 11:38:57;;;;;;;9.48;3.25;;;12.20;81.80;;;;;;5056751;28;20052;-73
2022/11/18 11:41:28;;;;;;;4.82;2.58;;;12.20;82.10;;;;;;5056583;28;20014;-74
2022/11/18 11:44:16;;;;;;;5.68;2.60;;;12.20;82.50;;;;;;5056503;28;20121;-73
2022/11/18 11:50:16;;;;;;;8.65;2.38;;;12.20;80.60;;;;;;5056277;28;20060;-73
2022/11/18 11:53:03;;;;;;;5.38;2.40;;;12.20;81.40;;;;;;5038842;28;20025;-74
2022/11/18 11:55:58;;;;;;;4.32;2.38;;;12.10;81.40;;;;;;5056291;28;20024;-73
2022/11/18 11:58:44;;;;;;;5.40;2.33;;;12.00;81.50;;;;;;5056389;28;20018;-73
2022/11/18 12:01:25;;;;;;;6.07;2.25;;;11.90;81.20;;;;;;5056334;28;20030;-74
2022/11/18 12:04:01;;;;;;;3.88;2.22;;;11.90;82.00;;;;;;5056273;28;20064;-73
2022/11/18 12:06:27;;;;;;;7.15;2.30;;;12.00;82.60;;;;;;5056092;28;20025;-73
2022/11/18 12:09:11;;;;;;;5.43;2.20;;;12.10;82.00;;;;;;5055910;28;20017;-73
2022/11/18 12:11:50;;;;;;;4.70;2.35;;;12.20;81.80;;;;;;5055996;28;20025;-73
2022/11/18 12:14:42;;;;;;;7.13;2.80;;;12.20;82.00;;;;;;5055430;28;20018;-73
2022/11/18 12:17:20;;;;;;;6.03;3.22;;;12.30;81.70;;;;;;5056027;28;20029;-73
2022/11/18 12:19:45;;;;;;;6.03;2.42;;;12.30;81.80;;;;;;5055851;28;20052;-73
2022/11/18 12:22:11;;;;;;;5.50;2.72;;;12.30;81.70;;;;;;5055691;28;20034;-73
2022/11/18 12:24:42;;;;;;;6.43;2.30;;;12.10;81.00;;;;;;5055733;28;20036;-73
2022/11/18 12:27:33;;;;;;;9.85;2.78;;;12.00;82.40;;;;;;5055777;28;20081;-74
2022/11/18 12:30:01;;;;;;;10.05;2.55;;;11.80;81.80;;;;;;5055410;28;20026;-73
2022/11/18 12:32:29;;;;;;;4.72;2.50;;;11.70;82.90;;;;;;5055565;28;20033;-73
2022/11/18 12:35:20;;;;;;;5.60;2.95;;;11.70;82.40;;;;;;5037880;28;20035;-73
2022/11/18 12:37:49;;;;;;;8.03;2.53;;;11.60;82.70;;;;;;5055514;28;20050;-73
2022/11/18 12:40:39;;;;;;;6.03;2.95;;;11.60;82.90;;;;;;5055443;28;20485;-74
2022/11/18 12:46:08;;;;;;;;;;;11.60;83.20;;;;;;5056012;28;20064;-73
2022/11/18 12:48:40;;;;;;;4.53;2.70;;;11.60;83.00;;;;;;5055152;28;19980;-74
2022/11/18 12:51:14;;;;;;;7.50;2.60;;;11.70;83.90;;;;;;5055250;28;20489;-73
2022/11/18 12:53:42;;;;;;;8.45;3.15;;;11.60;84.10;;;;;;5055357;28;20029;-74
2022/11/18 12:56:17;;;;;;;6.18;3.10;;;11.70;84.40;;;;;;5055124;28;20090;-74
2022/11/18 12:58:47;;;;;;;10.88;3.40;;;11.70;83.70;;;;;;5055260;28;20057;-73
2022/11/18 13:01:17;;;;;;;6.80;3.33;;;11.70;83.50;;;;;;5055021;28;20063;-73
2022/11/18 13:03:43;;;;;;;7.80;3.05;;;11.70;83.80;;;;;;5055168;28;20076;-73
2022/11/18 13:06:21;;;;;;;5.35;3.00;;;11.70;83.70;;;;;;5037348;28;20087;-73
2022/11/18 13:09:18;;;;;;;5.38;3.70;;;11.80;84.00;;;;;;5054948;28;20022;-73
2022/11/18 13:11:52;;;;;;;7.60;3.60;;;11.80;83.40;;;;;;5054971;28;20431;-73
2022/11/18 13:17:57;;;;;;;8.05;3.55;;;11.90;83.40;;;;;;5054957;28;20036;-73
2022/11/18 13:20:34;;;;;;;9.30;3.58;;;11.90;83.70;;;;;;5054644;28;20025;-73
2022/11/18 13:25:49;;;;;;;10.63;3.95;;;12.00;83.40;;;;;;5053905;28;20041;-73
2022/11/18 13:28:29;;;;;;;6.40;3.28;;;12.00;83.60;;;;;;5054694;28;20552;-73
2022/11/18 13:31:15;;;;;;;7.00;3.83;;;12.10;83.50;;;;;;5054641;28;20021;-74
2022/11/18 13:33:41;;;;;;;8.88;3.40;;;12.00;83.70;;;;;;5036999;28;20021;-73
2022/11/18 13:36:22;;;;;;;8.25;3.53;;;12.10;83.50;;;;;;5054527;28;20029;-73
2022/11/18 13:38:58;;;;;;;6.55;3.25;;;12.10;83.50;;;;;;5054262;28;20030;-73
2022/11/18 13:41:31;;;;;;;6.82;3.42;;;12.00;82.80;;;;;;5054338;28;20061;-74